Terminal Aerodrome Forecast
Issued by NWS

Home | Current Version | Previous Version | Text Only | Print | Product List | Glossary Off
Versions: 1 2 3 4 5 6 7 8 9 10 11 12 13 14 15 16

000
FTUS43 KGRB 230525
TAFCWA
TAF
KCWA 230525Z 2306/2406 16005KT P6SM SKC WS007/20035KT
     FM231500 18013G24KT P6SM SCT250
     FM232300 18010KT P6SM SCT120 BKN250=

USA.gov is the U.S. government's official web portal to all federal, state and local government web resources and services.